Time;durP1;ratioP1;P1;durP2;ratioP2;P2;SDS_P1;SDS_P2;PMS_P1;PMS_P2;Temp;Humidity;BMP_temperature;BMP_pressure;BME280_temperature;BME280_humidity;BME280_pressure;Samples;Min_cycle;Max_cycle;Signal;HPM_P1;HPM_P2
2021/12/04 00:00:22;;;;;;;56.65;29.83;;;;;;;;;;6130122;23;20346;-86
2021/12/04 00:02:51;;;;;;;59.03;31.60;;;;;;;;;;6129194;23;20017;-85
2021/12/04 00:05:18;;;;;;;61.25;31.77;;;;;;;;;;6130069;23;20013;-86
2021/12/04 00:07:44;;;;;;;64.22;32.28;;;;;;;;;;6154145;23;20009;-86
2021/12/04 00:10:16;;;;;;;68.53;33.25;;;;;;;;;;6129489;23;20469;-87
2021/12/04 00:12:42;;;;;;;66.70;35.45;;;;;;;;;;6154703;23;20013;-87
2021/12/04 00:15:08;;;;;;;63.83;32.80;;;;;;;;;;6129544;23;20017;-86
2021/12/04 00:17:35;;;;;;;66.80;34.03;;;;;;;;;;6154239;23;20359;-86
2021/12/04 00:20:01;;;;;;;69.38;33.72;;;;;;;;;;6130278;23;20013;-86
2021/12/04 00:22:27;;;;;;;64.97;34.38;;;;;;;;;;6129585;23;20067;-85
2021/12/04 00:24:53;;;;;;;68.65;35.40;;;;;;;;;;6129697;23;20096;-86
2021/12/04 00:27:19;;;;;;;64.00;32.25;;;;;;;;;;6156256;23;20274;-87
2021/12/04 00:29:45;;;;;;;76.80;34.33;;;;;;;;;;6130769;23;20545;-86
2021/12/04 00:32:14;;;;;;;66.40;32.58;;;;;;;;;;6130450;23;20009;-87
2021/12/04 00:34:44;;;;;;;70.07;33.63;;;;;;;;;;6130430;23;20017;-87
2021/12/04 00:37:28;;;;;;;65.22;34.30;;;;;;;;;;6131561;23;20446;-87
2021/12/04 00:49:07;;;;;;;68.20;32.40;;;;;;;;;;6155561;23;20455;-85
2021/12/04 00:51:12;;;;;;;69.93;33.95;;;;;;;;;;6155649;23;20049;-86
2021/12/04 00:53:38;;;;;;;66.97;35.53;;;;;;;;;;6155508;23;20063;-85
2021/12/04 00:56:04;;;;;;;68.10;34.25;;;;;;;;;;6131516;23;20017;-86
2021/12/04 00:58:30;;;;;;;70.45;34.00;;;;;;;;;;6156031;23;20063;-85
2021/12/04 01:00:56;;;;;;;75.35;35.85;;;;;;;;;;6131044;23;20017;-86
2021/12/04 01:03:22;;;;;;;76.05;36.47;;;;;;;;;;6130928;23;20180;-86
2021/12/04 01:05:48;;;;;;;74.68;34.53;;;;;;;;;;6130742;23;20016;-86
2021/12/04 01:08:14;;;;;;;79.68;36.53;;;;;;;;;;6156591;23;20080;-86
2021/12/04 01:10:40;;;;;;;66.70;35.05;;;;;;;;;;6155767;23;20009;-87
2021/12/04 01:13:11;;;;;;;75.00;36.42;;;;;;;;;;6130425;23;20455;-86
2021/12/04 01:15:37;;;;;;;71.47;34.42;;;;;;;;;;6130960;23;20332;-85
2021/12/04 01:18:03;;;;;;;69.07;33.72;;;;;;;;;;6131179;23;20024;-85
2021/12/04 01:20:29;;;;;;;77.03;34.83;;;;;;;;;;6156843;23;20355;-85
2021/12/04 01:22:55;;;;;;;73.07;36.63;;;;;;;;;;6133658;23;20107;-86
2021/12/04 01:25:21;;;;;;;72.65;33.70;;;;;;;;;;6133099;23;20009;-86
2021/12/04 01:27:47;;;;;;;69.07;33.08;;;;;;;;;;6133245;23;20071;-85
2021/12/04 01:30:13;;;;;;;72.63;36.10;;;;;;;;;;6134640;23;20458;-85
2021/12/04 01:32:39;;;;;;;82.13;34.75;;;;;;;;;;6134003;23;20013;-85
2021/12/04 01:35:06;;;;;;;72.38;34.78;;;;;;;;;;6132328;23;20017;-86
2021/12/04 01:37:32;;;;;;;83.43;35.53;;;;;;;;;;6133386;23;20075;-86
2021/12/04 01:39:58;;;;;;;69.13;33.58;;;;;;;;;;6157427;23;20087;-86
2021/12/04 01:42:24;;;;;;;73.35;33.33;;;;;;;;;;6132882;23;20037;-86
2021/12/04 01:44:50;;;;;;;69.75;32.83;;;;;;;;;;6134457;23;20013;-86
2021/12/04 01:47:20;;;;;;;64.97;32.45;;;;;;;;;;6157706;23;20035;-85
2021/12/04 01:49:48;;;;;;;69.32;33.88;;;;;;;;;;6133459;23;20024;-87
2021/12/04 01:52:15;;;;;;;77.43;34.35;;;;;;;;;;6157682;23;20020;-85
2021/12/04 01:54:41;;;;;;;76.72;34.90;;;;;;;;;;6133437;23;20455;-85
2021/12/04 01:57:07;;;;;;;78.22;34.88;;;;;;;;;;6132502;23;20016;-85
2021/12/04 01:59:33;;;;;;;71.43;31.88;;;;;;;;;;6158492;23;20024;-86
2021/12/04 02:02:00;;;;;;;69.63;31.38;;;;;;;;;;6133140;23;20076;-86
2021/12/04 02:04:26;;;;;;;78.70;32.55;;;;;;;;;;6157416;23;20017;-86
2021/12/04 02:06:52;;;;;;;77.07;33.33;;;;;;;;;;6132990;23;20096;-86
2021/12/04 02:09:18;;;;;;;72.97;33.70;;;;;;;;;;6131864;23;20020;-86
2021/12/04 02:11:44;;;;;;;69.38;32.70;;;;;;;;;;6156933;23;20063;-89
2021/12/04 02:14:10;;;;;;;69.78;32.53;;;;;;;;;;6131822;23;20016;-86
2021/12/04 02:16:36;;;;;;;81.55;32.65;;;;;;;;;;6158408;23;20405;-85
2021/12/04 02:19:02;;;;;;;70.53;30.52;;;;;;;;;;6133608;23;20057;-86
2021/12/04 02:21:28;;;;;;;65.30;29.02;;;;;;;;;;6157818;23;20023;-86
2021/12/04 02:23:55;;;;;;;66.25;28.42;;;;;;;;;;6133875;23;20398;-86
2021/12/04 02:26:20;;;;;;;59.72;29.10;;;;;;;;;;6133131;23;20064;-87
2021/12/04 02:28:47;;;;;;;61.38;28.67;;;;;;;;;;6157559;23;20013;-85
2021/12/04 02:31:13;;;;;;;64.13;28.90;;;;;;;;;;6157861;23;20093;-85
2021/12/04 02:33:39;;;;;;;58.42;28.20;;;;;;;;;;6133300;23;20036;-85
2021/12/04 02:36:07;;;;;;;57.67;28.40;;;;;;;;;;6133561;23;20111;-85
2021/12/04 02:38:33;;;;;;;54.33;26.25;;;;;;;;;;6132834;23;20017;-85
2021/12/04 02:41:00;;;;;;;60.72;26.95;;;;;;;;;;6156854;23;20075;-86
2021/12/04 02:43:26;;;;;;;54.50;25.83;;;;;;;;;;6132473;23;20095;-85
2021/12/04 02:45:53;;;;;;;56.58;25.92;;;;;;;;;;6157599;23;20013;-86
2021/12/04 02:48:19;;;;;;;52.17;24.95;;;;;;;;;;6156455;23;20088;-85
2021/12/04 02:50:46;;;;;;;57.10;27.30;;;;;;;;;;6157554;23;20370;-86
2021/12/04 02:53:12;;;;;;;51.35;26.88;;;;;;;;;;6132135;23;20024;-85
2021/12/04 02:55:38;;;;;;;52.95;26.23;;;;;;;;;;6157541;23;20013;-85
2021/12/04 02:58:04;;;;;;;51.45;25.98;;;;;;;;;;6132336;23;20016;-85
2021/12/04 03:00:30;;;;;;;47.97;23.73;;;;;;;;;;6132404;23;20035;-85
2021/12/04 03:02:56;;;;;;;46.55;24.38;;;;;;;;;;6132159;23;20048;-85
2021/12/04 03:05:24;;;;;;;49.47;24.60;;;;;;;;;;6130868;23;20582;-85
2021/12/04 03:07:51;;;;;;;49.28;24.85;;;;;;;;;;6156173;23;20347;-86
2021/12/04 03:10:17;;;;;;;42.58;23.23;;;;;;;;;;6156451;23;20442;-85
2021/12/04 03:12:43;;;;;;;38.97;23.00;;;;;;;;;;6157393;23;20020;-85
2021/12/04 03:15:09;;;;;;;43.33;23.27;;;;;;;;;;6132157;23;20454;-86
2021/12/04 03:17:35;;;;;;;40.92;23.60;;;;;;;;;;6157133;23;20112;-85
2021/12/04 03:20:02;;;;;;;45.13;24.15;;;;;;;;;;6131990;23;20059;-85
2021/12/04 03:22:28;;;;;;;46.90;24.00;;;;;;;;;;6156614;23;20012;-85
2021/12/04 03:24:56;;;;;;;40.05;23.27;;;;;;;;;;6132279;23;20013;-85
2021/12/04 03:27:24;;;;;;;41.15;22.27;;;;;;;;;;6132066;23;20015;-84
2021/12/04 03:30:04;;;;;;;45.45;22.00;;;;;;;;;;6132826;23;20271;-85
2021/12/04 03:32:55;;;;;;;42.95;23.38;;;;;;;;;;6132052;23;20016;-85
2021/12/04 03:40:57;;;;;;;43.22;24.08;;;;;;;;;;6156259;23;20469;-85
2021/12/04 03:43:23;;;;;;;42.13;21.63;;;;;;;;;;6130926;23;20144;-85
2021/12/04 03:45:55;;;;;;;43.50;23.83;;;;;;;;;;6157564;23;20017;-85
2021/12/04 03:51:00;;;;;;;42.40;22.25;;;;;;;;;;6155580;23;20354;-85
2021/12/04 03:53:26;;;;;;;38.50;22.92;;;;;;;;;;6132300;23;20013;-85
2021/12/04 03:55:52;;;;;;;40.97;22.95;;;;;;;;;;6131260;23;20552;-86
2021/12/04 03:58:19;;;;;;;41.22;22.55;;;;;;;;;;6131682;23;20017;-85
2021/12/04 04:00:45;;;;;;;41.75;23.48;;;;;;;;;;6155301;23;20399;-86
2021/12/04 04:03:11;;;;;;;40.05;22.45;;;;;;;;;;6132544;23;20075;-85
2021/12/04 04:05:37;;;;;;;40.45;20.70;;;;;;;;;;6157679;23;20017;-85
2021/12/04 04:08:03;;;;;;;38.97;21.15;;;;;;;;;;6133173;23;20465;-85
2021/12/04 04:10:29;;;;;;;37.53;22.52;;;;;;;;;;6132197;23;20017;-85
2021/12/04 04:12:55;;;;;;;39.78;21.10;;;;;;;;;;6156052;23;20017;-85
2021/12/04 04:15:22;;;;;;;43.50;21.52;;;;;;;;;;6131543;23;20381;-85
2021/12/04 04:17:49;;;;;;;39.72;21.63;;;;;;;;;;6155251;23;20095;-85
2021/12/04 04:20:16;;;;;;;42.72;22.67;;;;;;;;;;6154827;23;20020;-85
2021/12/04 04:22:43;;;;;;;43.78;23.23;;;;;;;;;;6130239;23;20117;-85
2021/12/04 04:25:10;;;;;;;41.35;21.95;;;;;;;;;;6130474;23;20125;-85
2021/12/04 04:27:36;;;;;;;35.88;20.02;;;;;;;;;;6154799;23;20320;-85
2021/12/04 04:30:03;;;;;;;39.92;22.70;;;;;;;;;;6154701;23;20016;-84
2021/12/04 04:32:29;;;;;;;41.65;21.25;;;;;;;;;;6130386;23;20013;-86
2021/12/04 04:34:56;;;;;;;41.63;22.65;;;;;;;;;;6130749;23;20092;-85
2021/12/04 05:12:56;;;;;;;42.88;21.00;;;;;;;;;;6155015;23;20021;-85
2021/12/04 05:21:05;;;;;;;45.58;21.65;;;;;;;;;;6154313;23;20036;-85
2021/12/04 05:23:32;;;;;;;40.15;21.02;;;;;;;;;;6129597;23;20142;-85
2021/12/04 05:25:58;;;;;;;42.72;20.80;;;;;;;;;;6130071;23;20017;-85
2021/12/04 05:28:25;;;;;;;38.22;20.85;;;;;;;;;;6130041;23;20020;-85
2021/12/04 05:30:52;;;;;;;56.45;22.42;;;;;;;;;;6154672;23;20013;-85
2021/12/04 05:33:18;;;;;;;40.00;20.27;;;;;;;;;;6129851;23;20514;-85
2021/12/04 05:35:48;;;;;;;44.83;22.52;;;;;;;;;;6130176;23;20041;-85
2021/12/04 05:38:14;;;;;;;40.00;21.27;;;;;;;;;;6155142;23;20020;-85
2021/12/04 05:40:40;;;;;;;37.80;19.65;;;;;;;;;;6130445;23;20013;-85
2021/12/04 05:43:06;;;;;;;44.78;21.80;;;;;;;;;;6130048;23;20044;-85
2021/12/04 05:45:38;;;;;;;44.65;21.73;;;;;;;;;;6129791;23;20063;-85
2021/12/04 05:48:09;;;;;;;44.08;20.58;;;;;;;;;;6130916;23;20320;-85
2021/12/04 05:54:29;;;;;;;45.28;21.55;;;;;;;;;;6155323;23;20375;-84
2021/12/04 05:56:10;;;;;;;53.80;21.52;;;;;;;;;;6135480;23;20029;-85
2021/12/04 05:58:36;;;;;;;42.03;22.52;;;;;;;;;;6129870;23;20013;-85
2021/12/04 06:01:04;;;;;;;44.80;21.50;;;;;;;;;;6129760;23;20405;-85
2021/12/04 06:03:30;;;;;;;58.55;22.83;;;;;;;;;;6130008;23;20013;-85
2021/12/04 06:05:56;;;;;;;40.53;20.77;;;;;;;;;;6130314;23;20016;-85
2021/12/04 06:08:22;;;;;;;39.45;19.25;;;;;;;;;;6131263;23;20071;-85
2021/12/04 06:10:49;;;;;;;42.00;20.50;;;;;;;;;;6132847;23;20010;-85
2021/12/04 06:13:16;;;;;;;46.97;22.17;;;;;;;;;;6132962;23;20028;-85
2021/12/04 06:15:42;;;;;;;48.45;22.20;;;;;;;;;;6132511;23;20095;-85
2021/12/04 06:18:08;;;;;;;50.13;22.90;;;;;;;;;;6132831;23;20461;-85
2021/12/04 06:23:23;;;;;;;47.22;21.13;;;;;;;;;;6155992;23;20017;-85
2021/12/04 06:25:49;;;;;;;47.40;21.90;;;;;;;;;;6132585;23;20399;-85
2021/12/04 06:28:16;;;;;;;62.05;25.45;;;;;;;;;;6156213;23;20366;-85
2021/12/04 06:30:42;;;;;;;47.95;21.40;;;;;;;;;;6156010;23;20140;-85
2021/12/04 06:33:09;;;;;;;52.65;23.38;;;;;;;;;;6132071;23;20068;-85
2021/12/04 06:35:39;;;;;;;46.42;22.40;;;;;;;;;;6132091;23;20021;-85
2021/12/04 06:38:05;;;;;;;54.70;23.23;;;;;;;;;;6131270;23;20087;-85
2021/12/04 06:40:31;;;;;;;40.70;20.85;;;;;;;;;;6155814;23;20017;-85
2021/12/04 06:42:59;;;;;;;57.00;23.60;;;;;;;;;;6130980;23;20017;-85
2021/12/04 06:45:26;;;;;;;66.95;23.45;;;;;;;;;;6130962;23;20024;-85
2021/12/04 06:47:56;;;;;;;63.80;24.95;;;;;;;;;;6131185;23;20042;-85
2021/12/04 06:50:42;;;;;;;62.83;26.42;;;;;;;;;;6130578;23;20342;-85
2021/12/04 06:53:17;;;;;;;59.92;23.55;;;;;;;;;;6155654;23;20016;-85
2021/12/04 06:55:47;;;;;;;52.75;23.40;;;;;;;;;;6156838;23;20017;-85
2021/12/04 06:58:13;;;;;;;51.85;21.05;;;;;;;;;;6156711;23;20017;-86
2021/12/04 07:00:39;;;;;;;66.30;24.67;;;;;;;;;;6156915;23;20104;-85
2021/12/04 07:03:05;;;;;;;62.85;25.98;;;;;;;;;;6131428;23;20051;-85
2021/12/04 07:05:31;;;;;;;42.22;19.63;;;;;;;;;;6131984;23;20048;-85
2021/12/04 07:07:57;;;;;;;54.13;25.08;;;;;;;;;;6131941;23;20013;-85
2021/12/04 07:10:23;;;;;;;55.45;24.92;;;;;;;;;;6157247;23;20009;-85
2021/12/04 07:12:49;;;;;;;70.57;28.20;;;;;;;;;;6132235;23;20040;-86
2021/12/04 07:15:15;;;;;;;49.90;24.83;;;;;;;;;;6133766;23;20017;-85
2021/12/04 07:17:41;;;;;;;54.03;23.63;;;;;;;;;;6159317;23;20013;-86
2021/12/04 07:20:10;;;;;;;57.80;24.63;;;;;;;;;;6158717;23;20041;-86
2021/12/04 07:22:36;;;;;;;64.38;27.08;;;;;;;;;;6157310;23;20013;-85
2021/12/04 07:25:04;;;;;;;71.05;27.75;;;;;;;;;;6158273;23;20037;-85
2021/12/04 07:27:30;;;;;;;57.88;25.55;;;;;;;;;;6159027;23;20016;-85
2021/12/04 07:29:56;;;;;;;60.08;24.40;;;;;;;;;;6133437;23;20020;-86
2021/12/04 07:32:25;;;;;;;60.38;26.50;;;;;;;;;;6157348;23;20013;-85
2021/12/04 07:34:51;;;;;;;60.28;24.23;;;;;;;;;;6131768;23;20324;-86
2021/12/04 07:37:17;;;;;;;44.22;20.33;;;;;;;;;;6156882;23;20404;-86
2021/12/04 07:39:43;;;;;;;75.35;29.98;;;;;;;;;;6134147;23;20017;-87
2021/12/04 07:42:09;;;;;;;51.40;22.77;;;;;;;;;;6134601;23;20013;-85
2021/12/04 07:44:35;;;;;;;47.90;21.90;;;;;;;;;;6133446;23;20044;-88
2021/12/04 07:47:01;;;;;;;44.70;21.27;;;;;;;;;;6134716;23;20013;-87
2021/12/04 07:49:27;;;;;;;53.72;22.45;;;;;;;;;;6159802;23;20016;-88
2021/12/04 07:51:53;;;;;;;51.95;24.33;;;;;;;;;;6135329;23;20017;-89
2021/12/04 07:54:19;;;;;;;50.25;24.00;;;;;;;;;;6135200;23;20013;-85
2021/12/04 07:56:45;;;;;;;59.55;24.75;;;;;;;;;;6135056;23;20044;-85
2021/12/04 07:59:11;;;;;;;50.80;23.35;;;;;;;;;;6135466;23;20076;-85
2021/12/04 08:01:37;;;;;;;43.30;19.73;;;;;;;;;;6132236;23;20025;-86
2021/12/04 08:04:04;;;;;;;51.20;24.15;;;;;;;;;;6132406;23;20017;-85
2021/12/04 08:06:33;;;;;;;57.83;24.02;;;;;;;;;;6158142;23;20017;-85
2021/12/04 08:08:59;;;;;;;41.10;21.70;;;;;;;;;;6133260;23;20012;-85
2021/12/04 08:11:25;;;;;;;51.00;22.27;;;;;;;;;;6158002;23;20013;-86
2021/12/04 08:13:51;;;;;;;63.80;24.63;;;;;;;;;;6131122;23;20458;-86
2021/12/04 08:16:18;;;;;;;52.50;22.38;;;;;;;;;;6133754;23;20024;-85
2021/12/04 08:18:44;;;;;;;40.15;19.33;;;;;;;;;;6134455;23;20017;-86
2021/12/04 08:21:10;;;;;;;39.95;19.65;;;;;;;;;;6158543;23;20017;-87
2021/12/04 08:23:37;;;;;;;42.45;19.20;;;;;;;;;;6158112;23;20533;-87
2021/12/04 08:26:03;;;;;;;46.88;20.13;;;;;;;;;;6158940;23;20013;-87
2021/12/04 08:28:29;;;;;;;48.55;20.27;;;;;;;;;;6132861;23;20020;-90
2021/12/04 08:30:55;;;;;;;38.45;19.08;;;;;;;;;;6133341;23;20017;-87
2021/12/04 08:33:21;;;;;;;37.38;17.65;;;;;;;;;;6133498;23;20067;-87
2021/12/04 08:35:47;;;;;;;42.72;18.23;;;;;;;;;;6133722;23;20017;-86
2021/12/04 08:38:16;;;;;;;34.65;16.98;;;;;;;;;;6132846;23;20020;-85
2021/12/04 08:40:42;;;;;;;29.42;15.25;;;;;;;;;;6134725;23;20016;-86
2021/12/04 08:43:08;;;;;;;27.85;15.25;;;;;;;;;;6134045;23;20013;-85
2021/12/04 08:45:34;;;;;;;26.92;15.15;;;;;;;;;;6134015;23;20044;-86
2021/12/04 08:48:00;;;;;;;26.83;14.75;;;;;;;;;;6132266;23;20013;-85
2021/12/04 08:50:28;;;;;;;26.40;14.80;;;;;;;;;;6132911;23;20091;-85
2021/12/04 08:52:56;;;;;;;31.35;15.73;;;;;;;;;;6132426;23;20039;-86
2021/12/04 08:55:22;;;;;;;28.10;15.77;;;;;;;;;;6133579;23;20016;-86
2021/12/04 08:57:49;;;;;;;25.35;15.38;;;;;;;;;;6133226;23;20499;-90
2021/12/04 09:00:20;;;;;;;26.20;14.90;;;;;;;;;;6132986;23;20016;-85
2021/12/04 09:02:47;;;;;;;25.30;15.18;;;;;;;;;;6133335;23;20538;-86
2021/12/04 09:05:15;;;;;;;23.48;14.65;;;;;;;;;;6158539;23;20029;-86
2021/12/04 09:07:41;;;;;;;25.10;14.80;;;;;;;;;;6132139;23;20013;-86
2021/12/04 09:10:08;;;;;;;28.25;15.40;;;;;;;;;;6132629;23;20502;-86
2021/12/04 09:12:34;;;;;;;25.35;15.25;;;;;;;;;;6132326;23;20013;-85
2021/12/04 09:15:01;;;;;;;29.23;15.57;;;;;;;;;;6133217;23;20099;-86
2021/12/04 09:17:27;;;;;;;26.80;15.50;;;;;;;;;;6131673;23;20100;-86
2021/12/04 09:19:53;;;;;;;25.45;14.55;;;;;;;;;;6131701;23;20115;-87
2021/12/04 09:22:32;;;;;;;29.27;16.08;;;;;;;;;;6133578;23;20068;-86
2021/12/04 09:24:59;;;;;;;27.55;15.35;;;;;;;;;;6131490;23;20093;-85
2021/12/04 09:30:35;;;;;;;28.10;15.27;;;;;;;;;;6156792;23;20061;-84
2021/12/04 09:33:43;;;;;;;25.02;15.23;;;;;;;;;;6157307;23;20013;-86
2021/12/04 09:36:15;;;;;;;29.40;16.65;;;;;;;;;;6153960;23;20013;-88
2021/12/04 10:00:58;;;;;;;24.85;14.55;;;;;;;;;;6156268;23;20096;-86
2021/12/04 10:03:49;;;;;;;23.23;13.52;;;;;;;;;;6133939;23;20383;-86
2021/12/04 10:06:36;;;;;;;22.52;13.52;;;;;;;;;;6134308;23;20058;-85
2021/12/04 10:14:45;;;;;;;27.60;14.93;;;;;;;;;;6155494;23;20368;-85
2021/12/04 10:22:20;;;;;;;22.90;13.30;;;;;;;;;;6156971;23;20147;-84
2021/12/04 10:32:55;;;;;;;22.70;13.70;;;;;;;;;;6158087;23;20017;-85
2021/12/04 10:35:22;;;;;;;22.10;12.60;;;;;;;;;;6157753;23;20351;-83
2021/12/04 10:37:58;;;;;;;22.30;13.23;;;;;;;;;;6133865;23;20041;-84
2021/12/04 10:40:34;;;;;;;22.13;13.15;;;;;;;;;;6133242;23;20013;-83
2021/12/04 10:43:01;;;;;;;25.17;13.30;;;;;;;;;;6133083;23;20009;-84
2021/12/04 10:45:35;;;;;;;21.88;12.40;;;;;;;;;;6156820;23;20458;-84
2021/12/04 10:48:04;;;;;;;22.23;12.43;;;;;;;;;;6134447;23;20013;-84
2021/12/04 10:53:04;;;;;;;21.30;11.73;;;;;;;;;;6158852;23;20048;-83
2021/12/04 11:03:50;;;;;;;23.50;12.73;;;;;;;;;;6159084;23;20021;-83
2021/12/04 11:23:43;;;;;;;21.80;12.02;;;;;;;;;;6159119;23;20024;-84
2021/12/04 11:26:34;;;;;;;22.52;12.88;;;;;;;;;;6135222;23;20100;-85
2021/12/04 11:42:58;;;;;;;25.42;14.23;;;;;;;;;;6067125;23;20073;-85
2021/12/04 11:45:28;;;;;;;26.30;13.90;;;;;;;;;;6119618;23;20075;-85
2021/12/04 11:47:56;;;;;;;24.95;13.98;;;;;;;;;;6159550;23;20017;-85
2021/12/04 11:50:31;;;;;;;26.75;14.52;;;;;;;;;;6133909;23;20032;-84
2021/12/04 11:53:00;;;;;;;25.00;13.75;;;;;;;;;;6157680;23;20013;-84
2021/12/04 11:55:27;;;;;;;25.73;14.55;;;;;;;;;;6132622;23;20020;-84
2021/12/04 11:57:54;;;;;;;27.48;14.73;;;;;;;;;;6132390;23;20013;-85
2021/12/04 12:00:24;;;;;;;23.63;14.15;;;;;;;;;;6156037;23;20048;-85
2021/12/04 12:02:52;;;;;;;28.77;14.90;;;;;;;;;;6131945;23;20089;-84
2021/12/04 12:05:20;;;;;;;26.65;13.88;;;;;;;;;;6155429;23;20021;-84
2021/12/04 12:07:51;;;;;;;29.70;14.57;;;;;;;;;;6156821;23;20016;-84
2021/12/04 12:10:17;;;;;;;29.60;15.27;;;;;;;;;;6156099;23;20362;-84
2021/12/04 12:12:44;;;;;;;25.70;14.27;;;;;;;;;;6156634;23;20042;-84
2021/12/04 12:15:26;;;;;;;26.00;14.77;;;;;;;;;;6156489;23;20013;-84
2021/12/04 12:17:54;;;;;;;24.92;13.95;;;;;;;;;;6157288;23;20009;-84
2021/12/04 12:20:30;;;;;;;25.73;14.07;;;;;;;;;;6156729;23;20017;-85
2021/12/04 12:23:03;;;;;;;28.02;15.00;;;;;;;;;;6155638;23;20020;-86
2021/12/04 12:33:58;;;;;;;31.50;17.65;;;;;;;;;;6155643;23;20651;-86
2021/12/04 12:36:21;;;;;;;33.22;18.50;;;;;;;;;;6154390;23;20016;-86
2021/12/04 12:38:58;;;;;;;31.10;17.60;;;;;;;;;;6157020;23;20024;-85
2021/12/04 12:41:27;;;;;;;31.67;18.45;;;;;;;;;;6156992;23;20024;-84
2021/12/04 12:44:08;;;;;;;29.77;18.00;;;;;;;;;;6132146;23;20016;-85
2021/12/04 12:46:43;;;;;;;31.45;19.08;;;;;;;;;;6157226;23;20481;-85
2021/12/04 12:49:27;;;;;;;33.60;18.98;;;;;;;;;;6131192;23;20009;-84
2021/12/04 12:51:58;;;;;;;34.60;20.08;;;;;;;;;;6133609;23;20092;-85
2021/12/04 12:54:26;;;;;;;37.17;19.83;;;;;;;;;;6133148;23;20336;-84
2021/12/04 12:56:58;;;;;;;35.85;19.73;;;;;;;;;;6132957;23;20017;-84
2021/12/04 13:13:34;;;;;;;46.83;25.20;;;;;;;;;;6153072;23;20017;-85
2021/12/04 13:16:05;;;;;;;47.97;23.90;;;;;;;;;;6152849;23;20013;-84
2021/12/04 13:18:32;;;;;;;50.28;24.77;;;;;;;;;;6153713;23;20450;-84
2021/12/04 13:21:00;;;;;;;50.13;25.75;;;;;;;;;;6128527;23;20016;-84
2021/12/04 13:23:26;;;;;;;48.40;26.77;;;;;;;;;;6130084;23;20013;-85
2021/12/04 13:25:54;;;;;;;51.20;26.27;;;;;;;;;;6154562;23;20013;-84
2021/12/04 13:28:21;;;;;;;51.40;27.45;;;;;;;;;;6152253;23;20017;-84
2021/12/04 13:30:47;;;;;;;50.33;26.23;;;;;;;;;;6129551;23;20013;-85
2021/12/04 13:33:14;;;;;;;50.33;25.25;;;;;;;;;;6129768;23;20470;-84
2021/12/04 13:35:45;;;;;;;53.45;25.25;;;;;;;;;;6154404;23;20028;-84
2021/12/04 13:38:11;;;;;;;52.40;25.45;;;;;;;;;;6153417;23;20013;-84
2021/12/04 13:40:38;;;;;;;54.88;25.70;;;;;;;;;;6129580;23;20016;-84
2021/12/04 13:43:08;;;;;;;57.25;26.30;;;;;;;;;;6153970;23;20013;-84
2021/12/04 13:45:34;;;;;;;59.67;29.00;;;;;;;;;;6130067;23;20067;-84
2021/12/04 13:48:00;;;;;;;57.80;27.20;;;;;;;;;;6130093;23;20013;-84
2021/12/04 13:52:57;;;;;;;55.80;27.00;;;;;;;;;;6154365;23;20024;-84
2021/12/04 13:55:24;;;;;;;53.78;26.20;;;;;;;;;;6154436;23;20079;-84
2021/12/04 13:57:51;;;;;;;52.72;25.90;;;;;;;;;;6154220;23;20049;-84
2021/12/04 14:00:17;;;;;;;55.08;26.75;;;;;;;;;;6129640;23;20024;-83
2021/12/04 14:02:44;;;;;;;48.80;25.85;;;;;;;;;;6153542;23;20060;-84
2021/12/04 14:05:12;;;;;;;44.05;22.58;;;;;;;;;;6129631;23;20055;-84
2021/12/04 14:07:46;;;;;;;46.80;23.25;;;;;;;;;;6154577;23;20043;-84
2021/12/04 14:10:16;;;;;;;47.70;23.67;;;;;;;;;;6130176;23;20013;-85
2021/12/04 14:12:43;;;;;;;43.50;22.45;;;;;;;;;;6130003;23;20024;-85
2021/12/04 14:15:14;;;;;;;51.22;23.30;;;;;;;;;;6129942;23;20067;-80
2021/12/04 14:17:41;;;;;;;40.03;21.73;;;;;;;;;;6129707;23;20024;-81
2021/12/04 14:20:09;;;;;;;45.65;22.75;;;;;;;;;;6129083;23;20013;-81
2021/12/04 14:22:44;;;;;;;45.13;22.98;;;;;;;;;;6154001;23;20052;-81
2021/12/04 14:25:11;;;;;;;44.55;23.58;;;;;;;;;;6129370;23;20017;-80
2021/12/04 14:27:38;;;;;;;47.72;23.33;;;;;;;;;;6129833;23;20016;-81
2021/12/04 14:30:04;;;;;;;50.33;24.48;;;;;;;;;;6152440;23;20447;-80
2021/12/04 14:32:32;;;;;;;49.00;24.17;;;;;;;;;;6132292;23;20009;-80
2021/12/04 14:35:03;;;;;;;51.30;24.73;;;;;;;;;;6156120;23;20067;-80
2021/12/04 14:37:32;;;;;;;45.60;23.45;;;;;;;;;;6126580;23;20017;-81
2021/12/04 14:40:00;;;;;;;49.63;24.45;;;;;;;;;;6153204;23;20211;-81
2021/12/04 14:42:30;;;;;;;49.28;23.48;;;;;;;;;;6154000;23;20013;-81
2021/12/04 14:44:57;;;;;;;54.55;26.33;;;;;;;;;;6180537;23;20067;-81
2021/12/04 14:47:28;;;;;;;51.85;25.92;;;;;;;;;;6129421;23;20016;-81
2021/12/04 14:49:59;;;;;;;52.22;25.80;;;;;;;;;;6180296;23;20312;-81
2021/12/04 14:52:25;;;;;;;49.20;25.90;;;;;;;;;;6154069;23;20048;-81
2021/12/04 14:54:52;;;;;;;50.50;25.95;;;;;;;;;;6153777;23;20052;-82
2021/12/04 14:57:21;;;;;;;56.70;28.15;;;;;;;;;;6153938;23;20350;-82
2021/12/04 14:59:58;;;;;;;58.33;29.65;;;;;;;;;;6154015;23;20013;-81
2021/12/04 15:02:24;;;;;;;65.20;28.98;;;;;;;;;;6153613;23;20040;-81
2021/12/04 15:04:51;;;;;;;54.92;28.33;;;;;;;;;;6153673;23;20021;-80
2021/12/04 15:07:18;;;;;;;65.50;30.08;;;;;;;;;;6179663;23;20016;-80
2021/12/04 15:09:44;;;;;;;72.78;34.40;;;;;;;;;;6153239;23;20387;-80
2021/12/04 15:12:10;;;;;;;66.05;31.65;;;;;;;;;;6128439;23;20024;-80
2021/12/04 15:14:36;;;;;;;71.30;32.08;;;;;;;;;;6179968;23;20021;-80
2021/12/04 15:17:06;;;;;;;67.78;30.92;;;;;;;;;;6153151;23;20016;-80
2021/12/04 15:19:41;;;;;;;62.60;30.40;;;;;;;;;;6179909;23;20027;-80
2021/12/04 15:22:15;;;;;;;75.03;37.00;;;;;;;;;;6153192;23;20091;-79
2021/12/04 15:24:44;;;;;;;64.90;32.63;;;;;;;;;;6153274;23;20318;-80
2021/12/04 15:27:12;;;;;;;62.28;31.77;;;;;;;;;;6180214;23;20376;-80
2021/12/04 15:29:39;;;;;;;59.83;28.73;;;;;;;;;;6153387;23;20017;-80
2021/12/04 15:32:25;;;;;;;60.83;30.00;;;;;;;;;;6129052;23;20017;-81
2021/12/04 15:34:57;;;;;;;173.85;106.40;;;;;;;;;;6179270;23;20028;-81
2021/12/04 15:37:41;;;;;;;54.42;30.45;;;;;;;;;;6153800;23;20469;-81
2021/12/04 15:40:13;;;;;;;64.32;31.17;;;;;;;;;;6128963;23;20380;-81
2021/12/04 15:43:10;;;;;;;87.07;41.85;;;;;;;;;;6180174;23;20013;-81
2021/12/04 15:45:39;;;;;;;82.50;40.47;;;;;;;;;;6151112;23;20021;-81
2021/12/04 15:53:33;;;;;;;57.80;28.90;;;;;;;;;;6177799;23;20024;-81
2021/12/04 15:56:00;;;;;;;77.95;52.92;;;;;;;;;;6152871;23;20609;-81
2021/12/04 15:58:28;;;;;;;80.63;44.25;;;;;;;;;;6151648;23;20028;-81
2021/12/04 16:00:56;;;;;;;63.92;30.08;;;;;;;;;;6152956;23;20305;-81
2021/12/04 16:03:26;;;;;;;64.57;33.70;;;;;;;;;;6152647;23;20089;-81
2021/12/04 16:06:03;;;;;;;70.78;36.28;;;;;;;;;;6128449;23;20013;-81
2021/12/04 16:08:30;;;;;;;72.93;33.20;;;;;;;;;;6152679;23;20013;-80
2021/12/04 16:10:57;;;;;;;55.28;29.92;;;;;;;;;;6179412;23;20013;-79
2021/12/04 16:13:24;;;;;;;66.38;31.65;;;;;;;;;;6153007;23;20013;-79
2021/12/04 16:15:51;;;;;;;55.80;29.17;;;;;;;;;;6153075;23;20024;-79
2021/12/04 16:18:18;;;;;;;61.72;31.30;;;;;;;;;;6153001;23;20128;-79
2021/12/04 16:20:46;;;;;;;71.25;32.33;;;;;;;;;;6153028;23;20397;-80
2021/12/04 16:23:14;;;;;;;56.42;29.73;;;;;;;;;;6179284;23;20390;-80
2021/12/04 16:25:40;;;;;;;70.82;31.98;;;;;;;;;;6153086;23;20017;-80
2021/12/04 16:31:08;;;;;;;62.78;32.72;;;;;;;;;;6152991;23;20096;-80
2021/12/04 16:36:25;;;;;;;57.38;30.95;;;;;;;;;;6152629;23;20032;-81
2021/12/04 16:38:51;;;;;;;73.10;36.58;;;;;;;;;;6128091;23;20022;-80
2021/12/04 16:41:18;;;;;;;70.63;34.83;;;;;;;;;;6153178;23;20443;-81
2021/12/04 16:43:46;;;;;;;88.40;39.17;;;;;;;;;;6179441;23;20343;-81
2021/12/04 16:46:17;;;;;;;79.00;34.92;;;;;;;;;;6179331;23;20032;-80
2021/12/04 16:48:47;;;;;;;80.28;36.15;;;;;;;;;;6152981;23;20091;-80
2021/12/04 16:59:01;;;;;;;76.70;33.85;;;;;;;;;;6152614;23;20021;-80
2021/12/04 17:01:27;;;;;;;83.00;37.00;;;;;;;;;;6128430;23;20017;-80
2021/12/04 17:03:54;;;;;;;76.40;34.45;;;;;;;;;;6153075;23;20028;-79
2021/12/04 17:06:20;;;;;;;78.00;37.60;;;;;;;;;;6152644;23;20320;-80
2021/12/04 17:08:46;;;;;;;72.95;34.70;;;;;;;;;;6152577;23;20013;-82
2021/12/04 17:11:12;;;;;;;71.03;33.70;;;;;;;;;;6179455;23;20013;-81
2021/12/04 17:13:38;;;;;;;91.82;38.83;;;;;;;;;;6153136;23;20374;-79
2021/12/04 17:16:05;;;;;;;88.28;38.13;;;;;;;;;;6127907;23;20028;-80
2021/12/04 17:18:35;;;;;;;72.28;34.65;;;;;;;;;;6152568;23;20017;-80
2021/12/04 17:21:01;;;;;;;93.03;38.38;;;;;;;;;;6153054;23;20269;-81
2021/12/04 17:23:27;;;;;;;92.72;38.67;;;;;;;;;;6151667;23;20072;-81
2021/12/04 17:25:54;;;;;;;74.32;35.22;;;;;;;;;;6152036;23;20009;-81
2021/12/04 17:28:24;;;;;;;110.18;42.35;;;;;;;;;;6152072;23;20351;-81
2021/12/04 17:30:50;;;;;;;61.75;32.78;;;;;;;;;;6152152;23;20344;-81
2021/12/04 17:33:16;;;;;;;87.57;36.08;;;;;;;;;;6152113;23;20454;-81
2021/12/04 17:35:43;;;;;;;81.85;36.80;;;;;;;;;;6127840;23;20009;-81